Lone Star State — WLSY — position and weather

sailwx.info

Track history (hours):
 
Tides and Currents Weather Stations Pressure Air Temp Water Temp Dewpoint Dewpoint Depression Visibility Wind Speed Wind Dir Waves Ship Positions

Lone Star State

Owner: Crowley Petroleum Services, Inc., Jacksonville, FL. More information available from US FCC via Universal Licensing System and Coast Guard Vessel Documentation Center.

Last reported at 2017-Sep-21 12:21 UTC. Time now 2017-Sep-23 03:52 UTC.
Position N 30°13' W 093°15'.

Length 186 m; draft 8.2 m.

Type: Tanker. MMSI: 367633000.

Date/timePositionNaut miles runAvg speedWind from/ knotsBaromVisibWave heightAir tempDewpointWater temp
2017-Sep-21 12:21N 30°13' W 093°15'0 0.0
2017-Sep-21 10:45N 30°13' W 093°15'0 0.0
2017-Sep-21 10:15N 30°13' W 093°15'0 0.0
2017-Sep-21 09:09N 30°13' W 093°15'0 0.0
2017-Sep-21 08:57N 30°13' W 093°15'0 0.0
2017-Sep-21 08:21N 30°13' W 093°15'0 0.0
2017-Sep-21 01:51N 30°13' W 093°15'0 0.0
2017-Sep-21 01:03N 30°13' W 093°15'0 0.1
2017-Sep-21 00:57N 30°13' W 093°15'0 0.0
2017-Sep-20 23:45N 30°13' W 093°15'0 0.0
2017-Sep-19 22:06N 30°13' W 093°15'0 0.2
2017-Sep-19 22:00N 30°13' W 093°15'1 2.6
2017-Sep-19 21:30N 30°12' W 093°16'3 5.8
2017-Sep-19 21:00N 30°11' W 093°19'3 5.7
2017-Sep-19 20:30N 30°08' W 093°20'4 7.4
2017-Sep-19 20:00N 30°04' W 093°20'4 7.7
2017-Sep-19 19:30N 30°00' W 093°20'4 8.6
2017-Sep-19 19:00N 29°56' W 093°20'510.2
2017-Sep-19 18:30N 29°51' W 093°21'5 9.2
2017-Sep-19 18:00N 29°46' W 093°21'510.5
2017-Sep-19 17:30N 29°41' W 093°20'  
2017-Sep-17 05:23N 29°35' W 093°47'5 8.7
2017-Sep-17 04:51N 29°39' W 093°49'411.9
2017-Sep-17 04:30N 29°43' W 093°51'4 8.8
2017-Sep-17 03:59N 29°46' W 093°55'4 8.9
2017-Sep-17 03:30N 29°49' W 093°58'4 8.1
2017-Sep-17 03:01N 29°53' W 093°55'4 8.8
2017-Sep-17 02:30N 29°56' W 093°52'3 5.8
2017-Sep-17 02:00N 29°59' W 093°53'  
2017-Sep-14 05:08N 30°02' W 094°02'0 0.1
2017-Sep-14 04:58N 30°02' W 094°02'1 2.0
2017-Sep-14 04:30N 30°01' W 094°01'2 4.7
2017-Sep-14 04:00N 30°01' W 093°59'5 5.0
2017-Sep-14 03:04N 29°59' W 093°54'1 5.4
2017-Sep-14 02:48N 29°59' W 093°52'2 6.3
2017-Sep-14 02:30N 29°57' W 093°52'3 6.4
2017-Sep-14 02:00N 29°54' W 093°54'32 0.8
2017-Sep-12 07:59N 30°08' W 093°20'5 3.3
2017-Sep-12 06:31N 30°12' W 093°17'0 4.7
2017-Sep-12 06:29N 30°12' W 093°17'1 2.1
2017-Sep-12 06:00N 30°13' W 093°16'1 2.0
2017-Sep-12 05:29N 30°14' W 093°15'0 0.2
2017-Sep-12 05:00N 30°14' W 093°15'0 0.0
2017-Sep-12 04:27N 30°14' W 093°15'0 0.0
2017-Sep-12 04:00N 30°14' W 093°15'0 0.0
2017-Sep-12 03:30N 30°14' W 093°15'0 0.0
2017-Sep-12 02:57N 30°14' W 093°15'0 0.0
2017-Sep-12 02:30N 30°14' W 093°15'0 0.0
2017-Sep-12 02:00N 30°14' W 093°15'0 0.0
2017-Sep-12 01:21N 30°14' W 093°15'0 0.0
2017-Sep-12 01:00N 30°14' W 093°15'0 0.0
2017-Sep-12 00:30N 30°14' W 093°15'0 0.0
2017-Sep-12 00:00N 30°14' W 093°15'0 0.0
2017-Sep-11 23:21N 30°14' W 093°15'0 0.0
2017-Sep-11 22:57N 30°14' W 093°15'0 0.0
2017-Sep-11 22:18N 30°14' W 093°15'0 0.0
2017-Sep-11 22:00N 30°14' W 093°15'0 0.0
2017-Sep-11 21:24N 30°14' W 093°15'0 0.0
2017-Sep-11 21:00N 30°14' W 093°15'0 0.0
2017-Sep-11 20:30N 30°14' W 093°15'0 0.0
2017-Sep-11 20:00N 30°14' W 093°15'0 0.0
2017-Sep-11 19:30N 30°14' W 093°15'0 0.0
2017-Sep-11 19:00N 30°14' W 093°15'0 0.0
2017-Sep-11 18:30N 30°14' W 093°15'0 0.0
2017-Sep-11 18:00N 30°14' W 093°15'0 0.0
2017-Sep-11 17:21N 30°14' W 093°15'0 0.0
2017-Sep-11 16:54N 30°14' W 093°15'0 0.0
2017-Sep-11 16:30N 30°14' W 093°15'0 0.0
2017-Sep-11 16:00N 30°14' W 093°15'0 0.0
2017-Sep-11 15:30N 30°14' W 093°15'0 0.0
2017-Sep-11 14:48N 30°14' W 093°15'0 0.0
2017-Sep-11 14:30N 30°14' W 093°15'0 0.0
2017-Sep-11 13:57N 30°14' W 093°15'0 0.0
2017-Sep-11 13:18N 30°14' W 093°15'  
Track history (hours):
 
Tides and Currents Weather Stations Pressure Air Temp Water Temp Dewpoint Dewpoint Depression Visibility Wind Speed Wind Dir Waves Ship Positions

Lone Star State

Owner: Crowley Petroleum Services, Inc., Jacksonville, FL. More information available from US FCC via Universal Licensing System and Coast Guard Vessel Documentation Center.

Last reported at 2017-Sep-21 12:21 UTC. Time now 2017-Sep-23 03:52 UTC.
Position N 30°13' W 093°15'.

Length 186 m; draft 8.2 m.

Type: Tanker. MMSI: 367633000.

Date/timePositionNaut miles runAvg speedWind from/ knotsBaromVisibWave heightAir tempDewpointWater temp
2017-Sep-21 12:21N 30°13' W 093°15'0 0.0
2017-Sep-21 10:45N 30°13' W 093°15'0 0.0
2017-Sep-21 10:15N 30°13' W 093°15'0 0.0
2017-Sep-21 09:09N 30°13' W 093°15'0 0.0
2017-Sep-21 08:57N 30°13' W 093°15'0 0.0
2017-Sep-21 08:21N 30°13' W 093°15'0 0.0
2017-Sep-21 01:51N 30°13' W 093°15'0 0.0
2017-Sep-21 01:03N 30°13' W 093°15'0 0.1
2017-Sep-21 00:57N 30°13' W 093°15'0 0.0
2017-Sep-20 23:45N 30°13' W 093°15'0 0.0
2017-Sep-19 22:06N 30°13' W 093°15'0 0.2
2017-Sep-19 22:00N 30°13' W 093°15'1 2.6
2017-Sep-19 21:30N 30°12' W 093°16'3 5.8
2017-Sep-19 21:00N 30°11' W 093°19'3 5.7
2017-Sep-19 20:30N 30°08' W 093°20'4 7.4
2017-Sep-19 20:00N 30°04' W 093°20'4 7.7
2017-Sep-19 19:30N 30°00' W 093°20'4 8.6
2017-Sep-19 19:00N 29°56' W 093°20'510.2
2017-Sep-19 18:30N 29°51' W 093°21'5 9.2
2017-Sep-19 18:00N 29°46' W 093°21'510.5
2017-Sep-19 17:30N 29°41' W 093°20'  
2017-Sep-17 05:23N 29°35' W 093°47'5 8.7
2017-Sep-17 04:51N 29°39' W 093°49'411.9
2017-Sep-17 04:30N 29°43' W 093°51'4 8.8
2017-Sep-17 03:59N 29°46' W 093°55'4 8.9
2017-Sep-17 03:30N 29°49' W 093°58'4 8.1
2017-Sep-17 03:01N 29°53' W 093°55'4 8.8
2017-Sep-17 02:30N 29°56' W 093°52'3 5.8
2017-Sep-17 02:00N 29°59' W 093°53'  
2017-Sep-14 05:08N 30°02' W 094°02'0 0.1
2017-Sep-14 04:58N 30°02' W 094°02'1 2.0
2017-Sep-14 04:30N 30°01' W 094°01'2 4.7
2017-Sep-14 04:00N 30°01' W 093°59'5 5.0
2017-Sep-14 03:04N 29°59' W 093°54'1 5.4
2017-Sep-14 02:48N 29°59' W 093°52'2 6.3
2017-Sep-14 02:30N 29°57' W 093°52'3 6.4
2017-Sep-14 02:00N 29°54' W 093°54'32 0.8
2017-Sep-12 07:59N 30°08' W 093°20'5 3.3
2017-Sep-12 06:31N 30°12' W 093°17'0 4.7
2017-Sep-12 06:29N 30°12' W 093°17'1 2.1
2017-Sep-12 06:00N 30°13' W 093°16'1 2.0
2017-Sep-12 05:29N 30°14' W 093°15'0 0.2
2017-Sep-12 05:00N 30°14' W 093°15'0 0.0
2017-Sep-12 04:27N 30°14' W 093°15'0 0.0
2017-Sep-12 04:00N 30°14' W 093°15'0 0.0
2017-Sep-12 03:30N 30°14' W 093°15'0 0.0
2017-Sep-12 02:57N 30°14' W 093°15'0 0.0
2017-Sep-12 02:30N 30°14' W 093°15'0 0.0
2017-Sep-12 02:00N 30°14' W 093°15'0 0.0
2017-Sep-12 01:21N 30°14' W 093°15'0 0.0
2017-Sep-12 01:00N 30°14' W 093°15'0 0.0
2017-Sep-12 00:30N 30°14' W 093°15'0 0.0
2017-Sep-12 00:00N 30°14' W 093°15'0 0.0
2017-Sep-11 23:21N 30°14' W 093°15'0 0.0
2017-Sep-11 22:57N 30°14' W 093°15'0 0.0
2017-Sep-11 22:18N 30°14' W 093°15'0 0.0
2017-Sep-11 22:00N 30°14' W 093°15'0 0.0
2017-Sep-11 21:24N 30°14' W 093°15'0 0.0
2017-Sep-11 21:00N 30°14' W 093°15'0 0.0
2017-Sep-11 20:30N 30°14' W 093°15'0 0.0
2017-Sep-11 20:00N 30°14' W 093°15'0 0.0
2017-Sep-11 19:30N 30°14' W 093°15'0 0.0
2017-Sep-11 19:00N 30°14' W 093°15'0 0.0
2017-Sep-11 18:30N 30°14' W 093°15'0 0.0
2017-Sep-11 18:00N 30°14' W 093°15'0 0.0
2017-Sep-11 17:21N 30°14' W 093°15'0 0.0
2017-Sep-11 16:54N 30°14' W 093°15'0 0.0
2017-Sep-11 16:30N 30°14' W 093°15'0 0.0
2017-Sep-11 16:00N 30°14' W 093°15'0 0.0
2017-Sep-11 15:30N 30°14' W 093°15'0 0.0
2017-Sep-11 14:48N 30°14' W 093°15'0 0.0
2017-Sep-11 14:30N 30°14' W 093°15'0 0.0
2017-Sep-11 13:57N 30°14' W 093°15'0 0.0
2017-Sep-11 13:18N 30°14' W 093°15'  

Dump ship's entire track history